»·PEaware :: N9BR KLAS-KLAX

N9BR :: KLAS-KLAX

FLIGHT INFORMATION

Flight Status: Arrived
Operator: Privately registered:
United States
More flights under this callsign
Pilot: John H. (7647)
Aircraft: MOONEY M-20 201 202 205 220 ATS MSE
(M20P)
More flights by this aircraft type
Origin: KLAS McCarran Intl
United States
Destination: KLAX Los Angeles Intl
United States
More flights between these airports :: More routes between these airports
Route: +HEC PMD KIMMO3
File this flight plan on PilotEdge
Remarks:
Altitude:
(Current/Filed)
12,000ft
Speed:
(Current/Filed)
170kts
Departed: 09-Sep-18 08:05 AM
Arrived: 09-Sep-18 09:43 AM
Distance/Time
Traveled:
205nm/1:38
Distance/Time
To Go:
Arrived

Flight Plot

Page will automatically refresh every two minutes.

Flight plan parsing failed; only flown route is shown


Map Options




Map Legend


Flown Route
Filed Route
Departure Airport
Arrival Airport
Navaid (VOR, NDB)
Fix

Horizontal Profiles

Position Reports

Time Latitude Longitude Heading Altitude Ground
Speed
09-Sep-18 07:51 36.080451 -115.170828 125 2171ft 0kts
09-Sep-18 07:52 36.080451 -115.170828 125 2171ft 0kts
09-Sep-18 07:53 36.080451 -115.170828 125 2171ft 0kts
09-Sep-18 07:54 36.080451 -115.170828 125 2171ft 0kts
09-Sep-18 07:55 36.080451 -115.170828 125 2171ft 0kts
09-Sep-18 07:56 36.080451 -115.170828 125 2171ft 0kts
09-Sep-18 07:57 36.080451 -115.170828 125 2171ft 0kts
09-Sep-18 07:58 36.080451 -115.170828 125 2171ft 0kts
09-Sep-18 07:59 36.080451 -115.170828 125 2171ft 0kts
09-Sep-18 08:00 36.080451 -115.170828 125 2171ft 0kts
09-Sep-18 08:01 36.081070 -115.169986 45 2167ft 11kts
09-Sep-18 08:02 36.084969 -115.167255 26 2153ft 20kts
09-Sep-18 08:03 36.090560 -115.164063 23 2129ft 24kts
09-Sep-18 08:04 36.096584 -115.160614 24 2104ft 23kts
09-Sep-18 08:05 36.099853 -115.157385 110 2089ft 0kts
09-Sep-18 08:06 36.099800 -115.157210 112 2088ft 7kts
09-Sep-18 08:07 36.088897 -115.162869 206 2205ft 102kts
09-Sep-18 08:08 36.058193 -115.173579 185 3204ft 125kts
09-Sep-18 08:09 36.023525 -115.177411 185 4399ft 126kts
09-Sep-18 08:10 35.987899 -115.181230 185 5459ft 135kts
09-Sep-18 08:11 35.951458 -115.183343 185 6622ft 129kts
09-Sep-18 08:12 35.918925 -115.184975 185 7576ft 127kts
09-Sep-18 08:13 35.886966 -115.187194 185 8424ft 128kts
09-Sep-18 08:14 35.851900 -115.189742 185 9283ft 130kts
09-Sep-18 08:15 35.816301 -115.195564 164 10034ft 139kts
09-Sep-18 08:16 35.774923 -115.210536 219 10041ft 174kts
09-Sep-18 08:17 35.748490 -115.259840 232 10049ft 179kts
09-Sep-18 08:18 35.717874 -115.305668 228 10049ft 177kts
09-Sep-18 08:19 35.684648 -115.350389 227 10053ft 177kts
09-Sep-18 08:20 35.651307 -115.393617 226 10049ft 172kts
09-Sep-18 08:21 35.621977 -115.431118 226 10908ft 129kts
09-Sep-18 08:22 35.597044 -115.462748 230 11504ft 133kts
09-Sep-18 08:23 35.570939 -115.495916 231 12043ft 136kts
09-Sep-18 08:24 35.541912 -115.532799 229 12076ft 160kts
09-Sep-18 08:25 35.510797 -115.572222 226 12080ft 162kts
09-Sep-18 08:26 35.479285 -115.612041 226 12077ft 163kts
09-Sep-18 08:27 35.448388 -115.650967 229 12077ft 161kts
09-Sep-18 08:28 35.420628 -115.685756 230 12077ft 162kts
09-Sep-18 08:29 35.391132 -115.722825 229 12077ft 163kts
09-Sep-18 08:30 35.359924 -115.762109 228 12078ft 166kts
09-Sep-18 08:31 35.327526 -115.802854 228 12083ft 165kts
09-Sep-18 08:32 35.301171 -115.835904 230 12105ft 166kts
09-Sep-18 08:33 35.270268 -115.874700 230 12109ft 167kts
09-Sep-18 08:34 35.241669 -115.910562 229 12106ft 168kts
09-Sep-18 08:35 35.210308 -115.949815 230 12104ft 168kts
09-Sep-18 08:36 35.177486 -115.990852 230 12104ft 169kts
09-Sep-18 08:37 35.145608 -116.030667 230 12106ft 169kts
09-Sep-18 08:38 35.114073 -116.070001 230 12103ft 169kts
09-Sep-18 08:39 35.081215 -116.110945 230 12104ft 169kts
09-Sep-18 08:40 35.049031 -116.150988 230 12102ft 169kts
09-Sep-18 08:41 35.016405 -116.191547 230 12071ft 171kts
09-Sep-18 08:42 34.982904 -116.233144 230 12022ft 172kts
09-Sep-18 08:43 34.949917 -116.274040 230 12022ft 170kts
09-Sep-18 08:44 34.917477 -116.314202 230 12024ft 170kts
09-Sep-18 08:45 34.886617 -116.351970 229 12019ft 169kts
09-Sep-18 08:46 34.854635 -116.391318 230 12019ft 169kts
09-Sep-18 08:47 34.821654 -116.431979 230 12019ft 169kts
09-Sep-18 08:48 34.796856 -116.476905 263 12000ft 162kts
09-Sep-18 08:49 34.787654 -116.529373 266 11992ft 161kts
09-Sep-18 08:50 34.782490 -116.583342 266 11988ft 161kts
09-Sep-18 08:51 34.777325 -116.637056 267 11988ft 159kts
09-Sep-18 08:52 34.772689 -116.685090 266 11993ft 161kts
09-Sep-18 08:53 34.767551 -116.738314 264 11995ft 162kts
09-Sep-18 08:54 34.762267 -116.792290 264 11993ft 162kts
09-Sep-18 08:55 34.757013 -116.845695 266 11995ft 161kts
09-Sep-18 08:56 34.751699 -116.899861 266 11994ft 162kts
09-Sep-18 08:57 34.746485 -116.952648 266 11994ft 163kts
09-Sep-18 08:58 34.741295 -117.004902 266 11996ft 163kts
09-Sep-18 08:59 34.735862 -117.059404 266 11997ft 163kts
09-Sep-18 09:00 34.730426 -117.113692 266 11993ft 162kts
09-Sep-18 09:01 34.724947 -117.168109 266 11995ft 162kts
09-Sep-18 09:02 34.719461 -117.222302 266 12042ft 160kts
09-Sep-18 09:03 34.714015 -117.275894 266 12047ft 161kts
09-Sep-18 09:04 34.708519 -117.329766 266 12044ft 161kts
09-Sep-18 09:05 34.703131 -117.382394 266 12050ft 161kts
09-Sep-18 09:06 34.697741 -117.434747 266 12047ft 161kts
09-Sep-18 09:07 34.692171 -117.488629 267 12043ft 161kts
09-Sep-18 09:08 34.686598 -117.542360 266 11982ft 163kts
09-Sep-18 09:09 34.680926 -117.596712 267 11982ft 162kts
09-Sep-18 09:10 34.675348 -117.650141 265 11928ft 164kts
09-Sep-18 09:11 34.670249 -117.698572 266 11931ft 163kts
09-Sep-18 09:12 34.664492 -117.753143 266 11931ft 163kts
09-Sep-18 09:13 34.658737 -117.807403 266 11930ft 163kts
09-Sep-18 09:14 34.652918 -117.862033 265 11933ft 163kts
09-Sep-18 09:15 34.647222 -117.915323 266 11927ft 163kts
09-Sep-18 09:16 34.641211 -117.971749 263 11283ft 173kts
09-Sep-18 09:17 34.635048 -118.029110 260 10292ft 174kts
09-Sep-18 09:18 34.619262 -118.082017 234 9335ft 170kts
09-Sep-18 09:19 34.591324 -118.127698 233 8231ft 179kts
09-Sep-18 09:20 34.561988 -118.174750 234 7963ft 174kts
09-Sep-18 09:21 34.534928 -118.218043 233 7957ft 174kts
09-Sep-18 09:22 34.506019 -118.264230 233 7955ft 175kts
09-Sep-18 09:23 34.477113 -118.310340 233 7958ft 175kts
09-Sep-18 09:24 34.447523 -118.357476 233 7954ft 175kts
09-Sep-18 09:25 34.417781 -118.404298 223 7953ft 176kts
09-Sep-18 09:26 34.372535 -118.394850 155 7869ft 178kts
09-Sep-18 09:27 34.331428 -118.369620 153 6989ft 131kts
09-Sep-18 09:28 34.299963 -118.349919 151 5871ft 135kts
09-Sep-18 09:29 34.266298 -118.328288 151 6018ft 146kts
09-Sep-18 09:30 34.229059 -118.304400 152 6017ft 160kts
09-Sep-18 09:31 34.188561 -118.278423 151 5999ft 174kts
09-Sep-18 09:32 34.145008 -118.250072 152 5564ft 181kts
09-Sep-18 09:33 34.105564 -118.224659 150 4963ft 129kts
09-Sep-18 09:34 34.075637 -118.205170 152 4321ft 127kts
09-Sep-18 09:35 34.044912 -118.185397 151 3147ft 126kts
09-Sep-18 09:36 34.015592 -118.166148 151 2496ft 114kts
09-Sep-18 09:37 33.986359 -118.146844 151 2471ft 132kts
09-Sep-18 09:38 33.954182 -118.144046 257 2468ft 133kts
09-Sep-18 09:39 33.957616 -118.188618 263 2055ft 140kts
09-Sep-18 09:40 33.952933 -118.230335 264 1999ft 125kts
09-Sep-18 09:41 33.948792 -118.271041 263 1929ft 129kts
09-Sep-18 09:42 33.944593 -118.312225 262 1289ft 124kts
09-Sep-18 09:43 33.940580 -118.351488 262 650ft 112kts
09-Sep-18 09:44 33.937479 -118.382119 262 136ft 85kts
09-Sep-18 09:45 33.935332 -118.399904 255 114ft 32kts
09-Sep-18 09:46 33.934605 -118.401775 200 116ft 10kts
09-Sep-18 09:47 33.933124 -118.401967 4 116ft 0kts
09-Sep-18 09:48 33.933124 -118.401967 4 116ft 0kts

Navigation Log

Ident Type
Flight plan parsing failed, navigation log unavailable